Time;durP1;ratioP1;P1;durP2;ratioP2;P2;SDS_P1;SDS_P2;PMS_P1;PMS_P2;Temp;Humidity;BMP_temperature;BMP_pressure;BME280_temperature;BME280_humidity;BME280_pressure;Samples;Min_cycle;Max_cycle;Signal;HPM_P1;HPM_P2
2023/03/11 00:02:11;;;;;;;1.03;0.60;;;;;;;;;;5055187;28;20518;-53
2023/03/11 00:04:37;;;;;;;0.60;0.30;;;;;;;;;;5055487;28;20429;-51
2023/03/11 00:07:08;;;;;;;1.30;0.60;;;;;;;;;;5055719;28;20025;-50
2023/03/11 00:09:34;;;;;;;0.50;0.30;;;;;;;;;;5055327;28;20028;-49
2023/03/11 00:12:00;;;;;;;0.37;0.23;;;;;;;;;;5055215;28;20037;-52
2023/03/11 00:14:27;;;;;;;0.43;0.27;;;;;;;;;;5055584;28;20049;-53
2023/03/11 00:16:53;;;;;;;1.23;1.07;;;;;;;;;;5055930;28;20078;-54
2023/03/11 00:19:19;;;;;;;0.70;0.30;;;;;;;;;;5055139;28;20025;-52
2023/03/11 00:21:45;;;;;;;0.63;0.37;;;;;;;;;;5054764;28;20083;-53
2023/03/11 00:24:10;;;;;;;0.53;0.30;;;;;;;;;;5054974;28;20036;-53
2023/03/11 00:26:36;;;;;;;0.90;0.40;;;;;;;;;;5055192;28;20095;-51
2023/03/11 00:29:02;;;;;;;0.30;0.20;;;;;;;;;;5053691;28;20120;-51
2023/03/11 00:31:28;;;;;;;0.63;0.30;;;;;;;;;;5054733;28;20033;-53
2023/03/11 00:33:56;;;;;;;1.27;0.87;;;;;;;;;;5054280;28;20128;-53
2023/03/11 00:36:22;;;;;;;0.97;0.60;;;;;;;;;;5055334;28;20025;-50
2023/03/11 00:38:48;;;;;;;2.73;1.03;;;;;;;;;;5055203;28;20036;-51
2023/03/11 00:41:14;;;;;;;0.90;0.37;;;;;;;;;;5054755;28;20391;-52
2023/03/11 00:43:40;;;;;;;1.70;0.90;;;;;;;;;;5054620;28;20206;-53
2023/03/11 00:46:06;;;;;;;0.60;0.40;;;;;;;;;;5054214;28;20387;-53
2023/03/11 00:48:32;;;;;;;1.10;0.50;;;;;;;;;;5054462;28;20033;-51
2023/03/11 00:50:58;;;;;;;0.53;0.37;;;;;;;;;;5054323;28;20039;-53
2023/03/11 00:53:24;;;;;;;0.93;0.27;;;;;;;;;;5054098;28;20036;-50
2023/03/11 00:55:50;;;;;;;0.90;0.47;;;;;;;;;;5054592;28;20053;-52
2023/03/11 00:58:15;;;;;;;2.13;0.90;;;;;;;;;;5054365;28;20079;-49
2023/03/11 01:00:41;;;;;;;2.33;2.13;;;;;;;;;;5054798;28;20028;-54
2023/03/11 01:03:07;;;;;;;1.40;0.77;;;;;;;;;;5054247;28;20043;-49
2023/03/11 01:05:34;;;;;;;1.10;0.67;;;;;;;;;;5054885;28;20025;-50
2023/03/11 01:08:00;;;;;;;0.93;0.60;;;;;;;;;;5054130;28;20036;-52
2023/03/11 01:10:26;;;;;;;1.13;0.57;;;;;;;;;;5054188;28;20080;-52
2023/03/11 01:12:53;;;;;;;1.03;0.53;;;;;;;;;;5053933;28;20071;-50
2023/03/11 01:15:39;;;;;;;1.23;0.67;;;;;;;;;;5053795;28;20025;-52
2023/03/11 01:18:05;;;;;;;3.90;1.03;;;;;;;;;;5054256;28;20056;-52
2023/03/11 01:20:31;;;;;;;3.03;0.77;;;;;;;;;;5054156;28;20066;-51
2023/03/11 01:22:57;;;;;;;1.77;0.97;;;;;;;;;;5053591;28;20120;-50
2023/03/11 01:25:23;;;;;;;1.90;0.60;;;;;;;;;;5053956;28;20025;-50
2023/03/11 01:27:50;;;;;;;1.37;0.60;;;;;;;;;;5053479;28;20025;-50
2023/03/11 01:30:18;;;;;;;1.50;0.57;;;;;;;;;;5053885;28;20104;-51
2023/03/11 01:32:44;;;;;;;0.83;0.37;;;;;;;;;;5053726;28;20025;-50
2023/03/11 01:35:12;;;;;;;0.60;0.37;;;;;;;;;;5052560;28;20029;-53
2023/03/11 01:37:38;;;;;;;3.37;0.93;;;;;;;;;;5052518;28;20047;-49
2023/03/11 01:40:04;;;;;;;2.40;1.10;;;;;;;;;;5053661;28;20033;-53
2023/03/11 01:42:30;;;;;;;1.07;0.70;;;;;;;;;;5053920;28;20033;-49
2023/03/11 01:44:56;;;;;;;0.63;0.40;;;;;;;;;;5053182;28;20032;-51
2023/03/11 01:47:38;;;;;;;1.77;0.67;;;;;;;;;;5053585;28;20466;-49
2023/03/11 01:50:06;;;;;;;1.10;0.70;;;;;;;;;;5053662;28;20032;-49
2023/03/11 01:52:32;;;;;;;0.67;0.47;;;;;;;;;;5053785;28;20025;-49
2023/03/11 01:54:58;;;;;;;0.80;0.60;;;;;;;;;;5054254;28;20036;-50
2023/03/11 01:57:24;;;;;;;1.23;0.87;;;;;;;;;;5053584;28;20096;-50
2023/03/11 01:59:56;;;;;;;0.97;0.57;;;;;;;;;;5054039;28;20059;-48
2023/03/11 02:02:28;;;;;;;0.67;0.40;;;;;;;;;;5053939;28;20029;-52
2023/03/11 02:04:54;;;;;;;0.30;0.30;;;;;;;;;;5053011;28;20059;-50
2023/03/11 02:07:20;;;;;;;1.47;0.70;;;;;;;;;;5054172;28;20060;-50
2023/03/11 02:09:46;;;;;;;2.00;1.10;;;;;;;;;;5053664;28;20508;-49
2023/03/11 02:12:13;;;;;;;1.33;0.60;;;;;;;;;;5053118;28;20216;-49
2023/03/11 02:14:41;;;;;;;1.00;0.80;;;;;;;;;;5053700;28;20029;-49
2023/03/11 02:17:08;;;;;;;0.90;0.70;;;;;;;;;;5053352;28;20029;-50
2023/03/11 02:19:33;;;;;;;1.27;0.60;;;;;;;;;;5053368;28;20029;-50
2023/03/11 02:22:00;;;;;;;1.57;0.93;;;;;;;;;;5053382;28;20116;-53
2023/03/11 02:24:41;;;;;;;1.03;0.67;;;;;;;;;;5052076;28;20025;-49
2023/03/11 02:27:12;;;;;;;1.97;0.80;;;;;;;;;;5053760;28;20091;-49
2023/03/11 02:29:38;;;;;;;1.10;0.70;;;;;;;;;;5053849;28;20349;-50
2023/03/11 02:32:08;;;;;;;0.67;0.40;;;;;;;;;;5053126;28;20091;-49
2023/03/11 02:34:36;;;;;;;0.52;0.35;;;;;;;;;;5053987;28;20037;-49
2023/03/11 02:37:05;;;;;;;1.20;0.70;;;;;;;;;;5053517;28;20029;-47
2023/03/11 02:39:33;;;;;;;1.52;0.65;;;;;;;;;;5053702;28;20017;-49
2023/03/11 02:42:00;;;;;;;1.23;0.93;;;;;;;;;;5053126;28;20098;-51
2023/03/11 02:44:26;;;;;;;1.10;0.87;;;;;;;;;;5053003;28;20467;-52
2023/03/11 02:46:52;;;;;;;1.20;0.80;;;;;;;;;;5053463;28;20061;-57
2023/03/11 02:49:19;;;;;;;1.17;0.80;;;;;;;;;;5052955;28;20040;-51
2023/03/11 02:51:45;;;;;;;0.60;0.30;;;;;;;;;;5052943;28;20072;-53
2023/03/11 02:54:11;;;;;;;0.80;0.40;;;;;;;;;;5052878;28;20029;-49
2023/03/11 02:56:36;;;;;;;0.77;0.50;;;;;;;;;;5055388;28;20036;-52
2023/03/11 02:59:03;;;;;;;2.43;0.70;;;;;;;;;;5056580;28;20375;-50
2023/03/11 03:01:29;;;;;;;2.17;1.43;;;;;;;;;;5056630;28;20366;-48
2023/03/11 03:03:55;;;;;;;0.43;0.33;;;;;;;;;;5056548;28;20112;-52
2023/03/11 03:06:21;;;;;;;3.40;1.07;;;;;;;;;;5057156;28;20029;-52
2023/03/11 03:08:47;;;;;;;0.13;0.10;;;;;;;;;;5056457;28;20041;-50
2023/03/11 03:11:13;;;;;;;1.90;1.37;;;;;;;;;;5056328;28;20032;-52
2023/03/11 03:13:39;;;;;;;6.60;0.97;;;;;;;;;;5056568;28;20049;-52
2023/03/11 03:16:05;;;;;;;0.43;0.40;;;;;;;;;;5056638;28;20028;-52
2023/03/11 03:18:31;;;;;;;2.73;0.50;;;;;;;;;;5056297;28;20056;-50
2023/03/11 03:20:57;;;;;;;0.97;0.30;;;;;;;;;;5056235;28;20064;-50
2023/03/11 03:23:23;;;;;;;7.17;0.80;;;;;;;;;;5056146;28;20052;-54
2023/03/11 03:25:49;;;;;;;3.37;0.87;;;;;;;;;;5056665;28;20107;-54
2023/03/11 03:28:15;;;;;;;0.30;0.20;;;;;;;;;;5055814;28;20049;-52
2023/03/11 03:30:41;;;;;;;1.20;0.53;;;;;;;;;;5056207;28;20029;-48
2023/03/11 03:33:07;;;;;;;4.73;1.03;;;;;;;;;;5056039;28;20052;-53
2023/03/11 03:35:33;;;;;;;0.63;0.63;;;;;;;;;;5056519;28;20064;-52
2023/03/11 03:38:00;;;;;;;2.33;0.70;;;;;;;;;;5055969;28;20025;-52
2023/03/11 03:40:26;;;;;;;3.23;1.60;;;;;;;;;;5055922;28;20029;-51
2023/03/11 03:42:52;;;;;;;1.63;0.50;;;;;;;;;;5056324;28;20183;-54
2023/03/11 03:45:18;;;;;;;6.13;0.90;;;;;;;;;;5056539;28;20056;-50
2023/03/11 03:47:44;;;;;;;0.73;0.67;;;;;;;;;;5055686;28;20112;-51
2023/03/11 03:50:11;;;;;;;10.23;1.40;;;;;;;;;;5056343;28;20025;-54
2023/03/11 03:52:37;;;;;;;0.20;0.10;;;;;;;;;;5055566;28;20041;-53
2023/03/11 03:55:04;;;;;;;1.30;0.77;;;;;;;;;;5056201;28;20028;-52
2023/03/11 03:57:30;;;;;;;0.50;0.40;;;;;;;;;;5055977;28;20025;-53
2023/03/11 03:59:56;;;;;;;1.73;1.33;;;;;;;;;;5055758;28;20348;-54
2023/03/11 04:02:22;;;;;;;0.37;0.20;;;;;;;;;;5055106;28;20040;-50
2023/03/11 04:04:48;;;;;;;3.83;0.73;;;;;;;;;;5055740;28;20032;-53
2023/03/11 04:07:14;;;;;;;1.23;0.43;;;;;;;;;;5054884;28;20021;-54
2023/03/11 04:09:41;;;;;;;0.60;0.40;;;;;;;;;;5055293;28;20029;-53
2023/03/11 04:12:07;;;;;;;0.60;0.40;;;;;;;;;;5054967;28;20037;-54
2023/03/11 04:14:33;;;;;;;0.10;0.10;;;;;;;;;;5054095;28;20162;-51
2023/03/11 04:16:59;;;;;;;0.53;0.33;;;;;;;;;;5055713;28;20067;-50
2023/03/11 04:19:25;;;;;;;1.67;0.73;;;;;;;;;;5055129;28;20366;-52
2023/03/11 04:21:51;;;;;;;1.40;0.67;;;;;;;;;;5055640;28;20028;-53
2023/03/11 04:24:17;;;;;;;0.40;0.33;;;;;;;;;;5055596;28;20371;-54
2023/03/11 04:26:44;;;;;;;8.90;0.80;;;;;;;;;;5055180;28;20469;-52
2023/03/11 04:29:10;;;;;;;0.60;0.40;;;;;;;;;;5055246;28;20021;-54
2023/03/11 04:31:36;;;;;;;2.83;0.90;;;;;;;;;;5053302;28;20071;-50
2023/03/11 04:34:02;;;;;;;0.50;0.37;;;;;;;;;;5055657;28;20025;-53
2023/03/11 04:36:28;;;;;;;0.77;0.20;;;;;;;;;;5054953;28;20035;-53
2023/03/11 04:38:55;;;;;;;1.43;0.97;;;;;;;;;;5054562;28;20025;-50
2023/03/11 04:41:21;;;;;;;3.60;1.00;;;;;;;;;;5054767;28;20040;-49
2023/03/11 04:43:47;;;;;;;2.53;0.93;;;;;;;;;;5055228;28;20025;-50
2023/03/11 04:46:13;;;;;;;0.20;0.20;;;;;;;;;;5055011;28;20021;-52
2023/03/11 04:48:39;;;;;;;0.67;0.43;;;;;;;;;;5054611;28;20021;-53
2023/03/11 04:51:06;;;;;;;0.50;0.30;;;;;;;;;;5054552;28;20056;-49
2023/03/11 04:53:32;;;;;;;0.43;0.30;;;;;;;;;;5054746;28;20029;-52
2023/03/11 04:55:58;;;;;;;1.67;1.00;;;;;;;;;;5054744;28;20029;-52
2023/03/11 04:58:24;;;;;;;0.97;0.63;;;;;;;;;;5054330;28;20029;-51
2023/03/11 05:00:50;;;;;;;2.37;0.77;;;;;;;;;;5054299;28;20146;-53
2023/03/11 05:03:16;;;;;;;1.63;0.60;;;;;;;;;;5054393;28;20078;-52
2023/03/11 05:05:42;;;;;;;0.50;0.40;;;;;;;;;;5054764;28;20033;-50
2023/03/11 05:08:08;;;;;;;4.23;0.40;;;;;;;;;;5054225;28;20056;-52
2023/03/11 05:10:34;;;;;;;1.83;0.60;;;;;;;;;;5053819;28;20052;-54
2023/03/11 05:13:00;;;;;;;0.83;0.83;;;;;;;;;;5054186;28;20540;-53
2023/03/11 05:15:26;;;;;;;1.17;0.80;;;;;;;;;;5054038;28;20049;-53
2023/03/11 05:17:52;;;;;;;3.87;0.67;;;;;;;;;;5053730;28;20036;-51
2023/03/11 05:20:18;;;;;;;3.53;1.20;;;;;;;;;;5053829;28;20035;-51
2023/03/11 05:22:44;;;;;;;2.20;0.67;;;;;;;;;;5053861;28;20032;-53
2023/03/11 05:25:10;;;;;;;1.43;0.57;;;;;;;;;;5053989;28;20417;-50
2023/03/11 05:27:36;;;;;;;0.70;0.60;;;;;;;;;;5054086;28;20029;-51
2023/03/11 05:30:02;;;;;;;0.93;0.43;;;;;;;;;;5054575;28;20025;-54
2023/03/11 05:32:27;;;;;;;1.30;0.60;;;;;;;;;;5054493;28;20477;-53
2023/03/11 05:34:53;;;;;;;2.33;0.90;;;;;;;;;;5053790;28;20374;-52
2023/03/11 05:37:19;;;;;;;1.27;1.00;;;;;;;;;;5053777;28;20021;-52
2023/03/11 05:39:45;;;;;;;0.57;0.20;;;;;;;;;;5053754;28;20412;-51
2023/03/11 05:42:11;;;;;;;0.73;0.57;;;;;;;;;;5053718;28;20400;-53
2023/03/11 05:44:37;;;;;;;1.43;0.60;;;;;;;;;;5053723;28;20021;-52
2023/03/11 05:47:03;;;;;;;0.90;0.43;;;;;;;;;;5054109;28;20061;-54
2023/03/11 05:49:29;;;;;;;2.93;0.93;;;;;;;;;;5054047;28;20036;-50
2023/03/11 05:51:55;;;;;;;3.37;0.77;;;;;;;;;;5053877;28;20482;-54
2023/03/11 05:54:21;;;;;;;0.50;0.30;;;;;;;;;;5053899;28;20554;-48
2023/03/11 05:56:47;;;;;;;0.83;0.40;;;;;;;;;;5053671;28;20033;-54
2023/03/11 05:59:14;;;;;;;1.37;0.90;;;;;;;;;;5053980;28;20060;-53
2023/03/11 06:01:40;;;;;;;0.97;0.67;;;;;;;;;;5053602;28;20033;-57
2023/03/11 06:04:06;;;;;;;0.67;0.37;;;;;;;;;;5053623;28;20382;-49
2023/03/11 06:06:32;;;;;;;2.53;0.80;;;;;;;;;;5054281;28;20164;-54
2023/03/11 06:08:58;;;;;;;0.70;0.57;;;;;;;;;;5054348;28;20487;-56
2023/03/11 06:11:24;;;;;;;0.53;0.30;;;;;;;;;;5053458;28;20037;-54
2023/03/11 06:13:53;;;;;;;1.47;0.97;;;;;;;;;;5053785;28;20391;-52
2023/03/11 06:16:20;;;;;;;0.23;0.17;;;;;;;;;;5054077;28;20111;-51
2023/03/11 06:18:46;;;;;;;1.13;0.90;;;;;;;;;;5053394;28;20071;-54
2023/03/11 06:21:16;;;;;;;0.90;0.67;;;;;;;;;;5053419;28;20033;-53
2023/03/11 06:23:42;;;;;;;4.80;0.82;;;;;;;;;;5053162;28;20036;-52
2023/03/11 06:26:11;;;;;;;1.33;0.43;;;;;;;;;;5053545;28;20021;-52
2023/03/11 06:28:37;;;;;;;0.50;0.50;;;;;;;;;;5053632;28;20025;-55
2023/03/11 06:31:10;;;;;;;0.67;0.50;;;;;;;;;;5054493;28;20120;-54
2023/03/11 06:33:36;;;;;;;1.53;0.80;;;;;;;;;;5057881;28;20055;-54
2023/03/11 06:36:03;;;;;;;0.90;0.77;;;;;;;;;;5057583;28;20036;-53
2023/03/11 06:38:29;;;;;;;1.23;0.67;;;;;;;;;;5057200;28;20029;-55
2023/03/11 06:41:02;;;;;;;1.03;0.73;;;;;;;;;;5057144;28;20025;-49
2023/03/11 06:43:30;;;;;;;0.77;0.47;;;;;;;;;;5057302;28;20116;-53
2023/03/11 06:45:56;;;;;;;0.83;0.40;;;;;;;;;;5057544;28;20104;-54
2023/03/11 06:48:22;;;;;;;2.00;0.53;;;;;;;;;;5057141;28;20021;-53
2023/03/11 06:50:55;;;;;;;4.00;1.47;;;;;;;;;;5057072;28;20092;-48
2023/03/11 06:53:21;;;;;;;0.97;0.40;;;;;;;;;;5056693;28;20025;-53
2023/03/11 06:55:57;;;;;;;1.70;1.07;;;;;;;;;;5056821;28;20060;-51
2023/03/11 06:58:23;;;;;;;0.77;0.47;;;;;;;;;;5056724;28;20614;-53
2023/03/11 07:00:49;;;;;;;1.23;0.70;;;;;;;;;;5056672;28;20067;-50
2023/03/11 07:03:15;;;;;;;1.40;1.20;;;;;;;;;;5054940;28;20056;-49
2023/03/11 07:05:41;;;;;;;2.40;1.27;;;;;;;;;;5056920;28;20025;-52
2023/03/11 07:08:07;;;;;;;5.60;1.97;;;;;;;;;;5056533;28;20052;-52
2023/03/11 07:10:34;;;;;;;1.30;0.60;;;;;;;;;;5056500;28;20374;-49
2023/03/11 07:13:00;;;;;;;1.17;0.63;;;;;;;;;;5056141;28;20560;-54
2023/03/11 07:15:26;;;;;;;0.30;0.20;;;;;;;;;;5056765;28;20021;-53
2023/03/11 07:17:52;;;;;;;0.73;0.73;;;;;;;;;;5056323;28;20025;-53
2023/03/11 07:20:18;;;;;;;1.70;0.60;;;;;;;;;;5056429;28;20485;-50
2023/03/11 07:22:44;;;;;;;2.57;1.83;;;;;;;;;;5056144;28;20374;-50
2023/03/11 07:25:10;;;;;;;1.30;0.80;;;;;;;;;;5056477;28;20032;-53
2023/03/11 07:27:36;;;;;;;0.93;0.63;;;;;;;;;;5055961;28;20116;-55
2023/03/11 07:30:01;;;;;;;1.53;0.87;;;;;;;;;;5056160;28;20024;-54
2023/03/11 07:32:27;;;;;;;2.50;1.07;;;;;;;;;;5056064;28;20032;-50
2023/03/11 07:34:53;;;;;;;0.77;0.70;;;;;;;;;;5056453;28;20060;-52
2023/03/11 07:37:19;;;;;;;5.77;1.17;;;;;;;;;;5056099;28;20033;-51
2023/03/11 07:39:45;;;;;;;1.90;0.53;;;;;;;;;;5055730;28;20029;-53
2023/03/11 07:42:11;;;;;;;3.00;0.83;;;;;;;;;;5055097;28;20044;-55
2023/03/11 07:44:37;;;;;;;0.63;0.40;;;;;;;;;;5055761;28;20033;-51
2023/03/11 07:47:04;;;;;;;2.23;1.07;;;;;;;;;;5055600;28;20032;-51
2023/03/11 07:49:30;;;;;;;0.57;0.57;;;;;;;;;;5055838;28;20025;-53
2023/03/11 07:51:56;;;;;;;1.63;1.13;;;;;;;;;;5055600;28;20041;-54
2023/03/11 07:54:22;;;;;;;1.00;0.60;;;;;;;;;;5056522;28;20320;-53
2023/03/11 07:56:48;;;;;;;0.97;0.87;;;;;;;;;;5055772;28;20391;-51
2023/03/11 07:59:14;;;;;;;1.20;0.73;;;;;;;;;;5055670;28;20029;-54
2023/03/11 08:01:40;;;;;;;3.53;0.90;;;;;;;;;;5056363;28;20033;-51
2023/03/11 08:04:10;;;;;;;9.93;1.20;;;;;;;;;;5055777;28;20501;-54
2023/03/11 08:06:37;;;;;;;1.50;0.77;;;;;;;;;;5056094;28;20037;-54
2023/03/11 08:09:05;;;;;;;0.83;0.67;;;;;;;;;;5055385;28;20031;-53
2023/03/11 08:11:31;;;;;;;0.70;0.40;;;;;;;;;;5055055;28;20463;-54
2023/03/11 08:13:57;;;;;;;1.03;0.63;;;;;;;;;;5055567;28;20055;-54
2023/03/11 08:16:24;;;;;;;0.77;0.47;;;;;;;;;;5055333;28;20025;-53
2023/03/11 08:18:50;;;;;;;0.33;0.20;;;;;;;;;;5055581;28;20032;-53
2023/03/11 08:21:23;;;;;;;2.23;0.37;;;;;;;;;;5055153;28;20042;-51
2023/03/11 08:23:50;;;;;;;1.10;0.80;;;;;;;;;;5055570;28;20020;-55
2023/03/11 08:26:17;;;;;;;5.30;0.97;;;;;;;;;;5055406;28;20044;-54
2023/03/11 08:28:43;;;;;;;1.70;0.90;;;;;;;;;;5055631;28;20414;-53
2023/03/11 08:31:36;;;;;;;0.60;0.40;;;;;;;;;;5054887;28;20064;-53
2023/03/11 08:34:03;;;;;;;1.00;0.60;;;;;;;;;;5054991;28;20025;-53
2023/03/11 08:36:29;;;;;;;4.20;0.97;;;;;;;;;;5054975;28;20071;-53
2023/03/11 08:38:55;;;;;;;1.87;0.87;;;;;;;;;;5054929;28;20024;-55
2023/03/11 08:41:21;;;;;;;0.60;0.53;;;;;;;;;;5055625;28;20040;-56
2023/03/11 08:43:47;;;;;;;0.50;0.50;;;;;;;;;;5054727;28;20446;-57
2023/03/11 08:46:15;;;;;;;4.97;0.87;;;;;;;;;;5054739;28;20356;-56
2023/03/11 08:48:41;;;;;;;0.97;0.67;;;;;;;;;;5055026;28;20044;-55
2023/03/11 08:51:11;;;;;;;0.50;0.47;;;;;;;;;;5053731;28;20041;-53
2023/03/11 08:53:37;;;;;;;0.43;0.28;;;;;;;;;;5054135;28;20025;-55
2023/03/11 08:56:03;;;;;;;1.20;0.73;;;;;;;;;;5055048;28;20031;-53
2023/03/11 08:58:29;;;;;;;1.37;0.67;;;;;;;;;;5054134;28;20475;-55
2023/03/11 09:00:56;;;;;;;0.67;0.30;;;;;;;;;;5054353;28;20032;-57
2023/03/11 09:03:22;;;;;;;1.37;0.63;;;;;;;;;;5054932;28;20021;-56
2023/03/11 09:05:48;;;;;;;0.77;0.43;;;;;;;;;;5054344;28;20029;-54
2023/03/11 09:08:14;;;;;;;1.60;0.83;;;;;;;;;;5054934;28;20079;-56
2023/03/11 09:10:40;;;;;;;2.90;0.70;;;;;;;;;;5054388;28;20063;-57
2023/03/11 09:13:06;;;;;;;1.00;0.50;;;;;;;;;;5054378;28;20059;-54
2023/03/11 09:15:33;;;;;;;0.30;0.23;;;;;;;;;;5054291;28;20025;-56
2023/03/11 09:17:59;;;;;;;7.40;1.73;;;;;;;;;;5054261;28;20027;-53
2023/03/11 09:20:25;;;;;;;3.27;1.47;;;;;;;;;;5053854;28;20139;-54
2023/03/11 09:22:51;;;;;;;3.63;0.80;;;;;;;;;;5054676;28;20033;-54
2023/03/11 09:25:17;;;;;;;7.60;1.10;;;;;;;;;;5054349;28;20025;-53
2023/03/11 09:27:43;;;;;;;1.80;0.87;;;;;;;;;;5053916;28;20462;-55
2023/03/11 09:30:09;;;;;;;1.67;1.33;;;;;;;;;;5054050;28;20108;-52
2023/03/11 09:32:36;;;;;;;4.20;1.03;;;;;;;;;;5053886;28;20029;-54
2023/03/11 09:35:02;;;;;;;5.77;0.70;;;;;;;;;;5054215;28;20029;-53
2023/03/11 09:37:29;;;;;;;2.70;0.40;;;;;;;;;;5053849;28;20064;-53
2023/03/11 09:39:55;;;;;;;1.23;0.47;;;;;;;;;;5054599;28;20029;-55
2023/03/11 09:42:24;;;;;;;0.10;0.10;;;;;;;;;;5054548;28;20059;-55
2023/03/11 09:45:05;;;;;;;1.33;0.43;;;;;;;;;;5054017;28;20029;-51
2023/03/11 09:47:30;;;;;;;;;;;;;;;;;;5054037;28;20028;-53
2023/03/11 09:49:56;;;;;;;1.70;0.87;;;;;;;;;;5053343;28;20358;-54
2023/03/11 09:52:43;;;;;;;1.13;0.73;;;;;;;;;;5053452;28;20108;-54
2023/03/11 09:55:24;;;;;;;0.60;0.33;;;;;;;;;;5053864;28;20471;-55
2023/03/11 09:57:51;;;;;;;0.75;0.45;;;;;;;;;;5053618;28;20036;-55
2023/03/11 10:00:19;;;;;;;2.65;0.75;;;;;;;;;;5053662;28;20025;-56
2023/03/11 10:02:45;;;;;;;0.73;0.40;;;;;;;;;;5053825;28;20348;-55
2023/03/11 10:05:16;;;;;;;1.15;0.77;;;;;;;;;;5053823;28;20414;-54
2023/03/11 10:07:45;;;;;;;2.03;0.63;;;;;;;;;;5058215;28;20032;-51
2023/03/11 10:10:12;;;;;;;2.40;0.67;;;;;;;;;;5058462;28;20029;-54
2023/03/11 10:12:50;;;;;;;0.97;0.60;;;;;;;;;;5057296;28;20080;-51
2023/03/11 10:15:16;;;;;;;2.20;0.83;;;;;;;;;;5057697;28;20085;-54
2023/03/11 10:18:02;;;;;;;0.65;0.25;;;;;;;;;;5057458;28;20111;-56
2023/03/11 10:20:28;;;;;;;0.77;0.38;;;;;;;;;;5048982;28;20033;-57
2023/03/11 10:23:13;;;;;;;0.50;0.13;;;;;;;;;;5057344;28;20029;-55
2023/03/11 10:25:58;;;;;;;0.88;0.45;;;;;;;;;;5057902;28;20426;-56
2023/03/11 10:28:28;;;;;;;1.75;0.63;;;;;;;;;;5057649;28;20092;-55
2023/03/11 10:30:57;;;;;;;1.33;0.80;;;;;;;;;;5057220;28;20025;-54
2023/03/11 10:33:26;;;;;;;1.23;0.47;;;;;;;;;;5057631;28;20029;-55
2023/03/11 10:35:53;;;;;;;0.50;0.30;;;;;;;;;;5057976;28;20037;-54
2023/03/11 10:38:21;;;;;;;1.08;0.40;;;;;;;;;;5056692;28;20048;-55
2023/03/11 10:40:48;;;;;;;2.08;0.75;;;;;;;;;;5057823;28;20351;-54
2023/03/11 10:43:15;;;;;;;0.50;0.32;;;;;;;;;;5057331;28;20370;-56
2023/03/11 10:45:43;;;;;;;2.88;0.50;;;;;;;;;;5057337;28;20477;-52
2023/03/11 10:48:14;;;;;;;1.92;0.60;;;;;;;;;;5056554;28;20471;-53
2023/03/11 10:50:50;;;;;;;0.65;0.30;;;;;;;;;;5057198;28;20467;-54
2023/03/11 10:53:17;;;;;;;5.25;0.47;;;;;;;;;;5057182;28;20033;-53
2023/03/11 10:55:51;;;;;;;0.75;0.40;;;;;;;;;;5057330;28;20035;-55
2023/03/11 10:58:19;;;;;;;2.65;0.52;;;;;;;;;;5056701;28;20091;-56
2023/03/11 11:00:45;;;;;;;0.63;0.45;;;;;;;;;;5056942;28;20029;-55
2023/03/11 11:03:23;;;;;;;2.88;0.50;;;;;;;;;;5056631;28;20029;-55
2023/03/11 11:06:00;;;;;;;1.10;0.70;;;;;;;;;;5057200;28;20025;-55
2023/03/11 11:08:26;;;;;;;1.00;0.52;;;;;;;;;;5056487;28;20413;-55
2023/03/11 11:10:53;;;;;;;0.63;0.30;;;;;;;;;;5056355;28;20021;-57
2023/03/11 11:13:21;;;;;;;1.52;0.65;;;;;;;;;;5056357;28;20399;-57
2023/03/11 11:15:57;;;;;;;1.27;0.60;;;;;;;;;;5056685;28;20068;-55
2023/03/11 11:18:23;;;;;;;4.15;1.15;;;;;;;;;;5055948;28;20036;-54
2023/03/11 11:20:54;;;;;;;1.60;0.70;;;;;;;;;;5056218;28;20029;-57
2023/03/11 11:23:31;;;;;;;8.80;1.38;;;;;;;;;;5056033;28;20029;-55
2023/03/11 11:26:03;;;;;;;2.95;0.77;;;;;;;;;;5056723;28;20021;-53
2023/03/11 11:28:30;;;;;;;4.03;0.52;;;;;;;;;;5055864;28;20025;-53
2023/03/11 11:31:03;;;;;;;0.43;0.20;;;;;;;;;;5056290;28;20466;-55
2023/03/11 11:33:31;;;;;;;0.60;0.13;;;;;;;;;;5056107;28;20421;-57
2023/03/11 11:35:59;;;;;;;1.55;0.63;;;;;;;;;;5056616;28;20024;-56
2023/03/11 11:38:26;;;;;;;0.17;0.08;;;;;;;;;;5056279;28;20029;-56
2023/03/11 11:40:54;;;;;;;1.85;0.45;;;;;;;;;;5056220;28;20029;-53
2023/03/11 11:43:33;;;;;;;1.42;0.82;;;;;;;;;;5055780;28;20075;-55
2023/03/11 11:46:03;;;;;;;0.85;0.40;;;;;;;;;;5056210;28;20135;-51
2023/03/11 11:48:34;;;;;;;1.58;0.28;;;;;;;;;;5055600;28;20029;-55
2023/03/11 11:51:01;;;;;;;4.35;0.43;;;;;;;;;;5056194;28;20080;-53
2023/03/11 11:53:40;;;;;;;1.33;0.55;;;;;;;;;;5055239;28;20067;-53
2023/03/11 11:56:06;;;;;;;0.98;0.47;;;;;;;;;;5056181;28;20025;-54
2023/03/11 11:58:32;;;;;;;1.40;0.32;;;;;;;;;;5055623;28;20424;-55
2023/03/11 12:01:13;;;;;;;1.35;0.35;;;;;;;;;;5055495;28;20036;-53
2023/03/11 12:03:51;;;;;;;2.05;0.98;;;;;;;;;;5056137;28;20028;-56
2023/03/11 12:06:26;;;;;;;1.35;0.60;;;;;;;;;;5055748;28;20107;-56
2023/03/11 12:09:04;;;;;;;0.40;0.20;;;;;;;;;;5055909;28;20075;-57
2023/03/11 12:11:42;;;;;;;0.90;0.35;;;;;;;;;;5055257;28;20044;-56
2023/03/11 12:14:33;;;;;;;0.98;0.50;;;;;;;;;;5055346;28;20056;-56
2023/03/11 12:17:03;;;;;;;2.40;1.05;;;;;;;;;;5055893;28;20344;-57
2023/03/11 12:20:08;;;;;;;1.33;0.60;;;;;;;;;;5055291;28;20025;-56
2023/03/11 12:22:34;;;;;;;0.65;0.28;;;;;;;;;;5033598;28;20376;-56
2023/03/11 12:25:00;;;;;;;1.20;0.52;;;;;;;;;;5032701;28;20025;-55
2023/03/11 12:27:46;;;;;;;1.00;0.47;;;;;;;;;;5042952;28;20033;-55
2023/03/11 12:30:25;;;;;;;0.98;0.45;;;;;;;;;;5054286;28;20025;-56
2023/03/11 12:32:56;;;;;;;0.73;0.30;;;;;;;;;;5054889;28;20060;-55
2023/03/11 12:35:26;;;;;;;1.00;0.77;;;;;;;;;;5055259;28;20363;-53
2023/03/11 12:37:52;;;;;;;;;;;;;;;;;;5054874;28;20025;-55
2023/03/11 12:40:37;;;;;;;5.13;0.40;;;;;;;;;;5054494;28;19995;-56
2023/03/11 12:43:03;;;;;;;1.08;0.65;;;;;;;;;;5054840;28;20029;-56
2023/03/11 12:45:48;;;;;;;1.52;0.63;;;;;;;;;;5054912;28;20032;-52
2023/03/11 12:48:24;;;;;;;1.58;0.50;;;;;;;;;;5054584;28;20028;-53
2023/03/11 12:50:50;;;;;;;1.30;0.52;;;;;;;;;;5054214;28;20395;-54
2023/03/11 12:53:17;;;;;;;1.75;0.65;;;;;;;;;;5055065;28;20051;-53
2023/03/11 12:56:00;;;;;;;0.95;0.50;;;;;;;;;;5054371;28;20379;-55
2023/03/11 12:58:36;;;;;;;3.17;1.00;;;;;;;;;;5054873;28;20348;-53
2023/03/11 13:01:10;;;;;;;0.22;0.13;;;;;;;;;;5054481;28;20075;-55
2023/03/11 13:03:36;;;;;;;1.27;0.57;;;;;;;;;;5054203;28;20033;-55
2023/03/11 13:06:15;;;;;;;0.85;0.35;;;;;;;;;;5055037;28;20455;-56
2023/03/11 13:08:44;;;;;;;0.93;0.52;;;;;;;;;;5054364;28;20056;-53
2023/03/11 13:11:28;;;;;;;0.82;0.43;;;;;;;;;;5053806;28;20039;-55
2023/03/11 13:14:07;;;;;;;2.35;0.88;;;;;;;;;;5054783;28;20098;-54
2023/03/11 13:16:38;;;;;;;0.95;0.55;;;;;;;;;;5054154;28;20057;-53
2023/03/11 13:19:42;;;;;;;0.90;0.55;;;;;;;;;;5054005;28;20025;-52
2023/03/11 13:22:28;;;;;;;1.02;0.43;;;;;;;;;;5031678;28;20040;-56
2023/03/11 13:24:54;;;;;;;0.95;0.47;;;;;;;;;;5031436;28;20033;-55
2023/03/11 13:27:29;;;;;;;0.47;0.20;;;;;;;;;;5044774;28;20095;-54
2023/03/11 13:30:09;;;;;;;1.20;0.68;;;;;;;;;;5054301;28;20021;-53
2023/03/11 13:32:35;;;;;;;0.68;0.40;;;;;;;;;;5054217;28;20547;-54
2023/03/11 13:35:00;;;;;;;1.75;0.98;;;;;;;;;;5054368;28;20052;-52
2023/03/11 13:37:26;;;;;;;1.13;1.10;;;;;;;;;;5053957;28;20051;-55
2023/03/11 13:40:02;;;;;;;2.13;1.00;;;;;;;;;;5053622;28;20025;-56
2023/03/11 13:42:35;;;;;;;1.98;0.45;;;;;;;;;;5054153;28;20033;-54
2023/03/11 13:45:03;;;;;;;0.52;0.35;;;;;;;;;;5053719;28;20364;-52
2023/03/11 13:47:30;;;;;;;1.05;0.60;;;;;;;;;;5053932;28;20382;-52
2023/03/11 13:50:03;;;;;;;3.35;0.60;;;;;;;;;;5053795;28;20032;-54
2023/03/11 13:52:33;;;;;;;1.30;0.55;;;;;;;;;;5054031;28;20359;-53
2023/03/11 13:55:19;;;;;;;1.30;0.80;;;;;;;;;;5053916;28;20033;-55
2023/03/11 13:58:05;;;;;;;2.63;1.00;;;;;;;;;;5053761;28;20056;-53
2023/03/11 14:00:32;;;;;;;0.45;0.38;;;;;;;;;;5053260;28;20055;-53
2023/03/11 14:03:01;;;;;;;0.90;0.50;;;;;;;;;;5053355;28;20082;-55
2023/03/11 14:05:34;;;;;;;1.85;0.57;;;;;;;;;;5053509;28;20017;-56
2023/03/11 14:08:19;;;;;;;2.67;1.10;;;;;;;;;;5054307;28;20025;-53
2023/03/11 14:10:54;;;;;;;4.35;0.65;;;;;;;;;;5053285;28;20018;-52
2023/03/11 14:13:21;;;;;;;0.85;0.57;;;;;;;;;;5052581;28;20091;-54
2023/03/11 14:16:05;;;;;;;3.85;0.98;;;;;;;;;;5053661;28;20021;-53
2023/03/11 14:18:36;;;;;;;1.40;0.63;;;;;;;;;;5053192;28;20021;-55
2023/03/11 14:21:02;;;;;;;;;;;;;;;;;;5053611;28;20485;-55
2023/03/11 14:23:39;;;;;;;2.30;0.63;;;;;;;;;;5053217;28;19905;-55
2023/03/11 14:26:06;;;;;;;2.15;0.32;;;;;;;;;;5053598;28;20029;-49
2023/03/11 14:28:34;;;;;;;0.57;0.30;;;;;;;;;;5053256;28;20036;-54
2023/03/11 14:31:01;;;;;;;1.98;0.40;;;;;;;;;;5053174;28;20025;-56
2023/03/11 14:33:27;;;;;;;0.75;0.38;;;;;;;;;;5053392;28;20058;-54
2023/03/11 14:35:54;;;;;;;3.35;1.20;;;;;;;;;;5053605;28;20043;-52
2023/03/11 14:38:21;;;;;;;0.75;0.40;;;;;;;;;;5053049;28;20029;-54
2023/03/11 14:40:50;;;;;;;1.70;0.80;;;;;;;;;;5053518;28;20100;-53
2023/03/11 14:43:16;;;;;;;3.63;0.63;;;;;;;;;;5053093;28;20055;-51
2023/03/11 14:45:42;;;;;;;1.02;0.70;;;;;;;;;;5053571;28;20021;-54
2023/03/11 14:48:08;;;;;;;0.95;0.60;;;;;;;;;;5053403;28;20021;-55
2023/03/11 14:50:35;;;;;;;1.42;0.50;;;;;;;;;;5053248;28;20370;-54
2023/03/11 14:53:08;;;;;;;1.58;0.85;;;;;;;;;;5055821;28;20033;-52